createdAt,value
2022-12-18T00:01:03.781Z,0
2022-12-18T00:02:20.075Z,0
2022-12-18T00:03:36.374Z,0
2022-12-18T00:04:52.663Z,0
2022-12-18T00:06:07.964Z,0
2022-12-18T00:07:24.256Z,0
2022-12-18T00:08:40.568Z,0
2022-12-18T00:09:56.845Z,0
2022-12-18T00:11:13.143Z,0
2022-12-18T00:12:29.450Z,0
2022-12-18T00:13:45.749Z,0
2022-12-18T00:15:02.043Z,0
2022-12-18T00:16:18.321Z,0
2022-12-18T00:17:34.628Z,0
2022-12-18T00:18:50.915Z,0
2022-12-18T00:20:07.210Z,0
2022-12-18T00:21:23.513Z,0
2022-12-18T00:22:38.819Z,0
2022-12-18T00:23:55.111Z,0
2022-12-18T00:25:11.419Z,0
2022-12-18T00:26:27.709Z,0
2022-12-18T00:27:44.006Z,0
2022-12-18T00:29:00.295Z,0
2022-12-18T00:30:16.585Z,0
2022-12-18T00:31:32.882Z,0
2022-12-18T00:32:49.177Z,0
2022-12-18T00:34:05.475Z,0
2022-12-18T00:35:21.771Z,0
2022-12-18T00:36:38.057Z,0
2022-12-18T00:37:54.351Z,0
2022-12-18T00:39:09.677Z,0
2022-12-18T00:40:25.958Z,0
2022-12-18T00:41:42.268Z,0
2022-12-18T00:42:58.553Z,0
2022-12-18T00:44:14.844Z,0
2022-12-18T00:45:31.148Z,0
2022-12-18T00:46:47.443Z,0
2022-12-18T00:48:03.731Z,0
2022-12-18T00:49:20.027Z,0
2022-12-18T00:50:36.319Z,0
2022-12-18T00:51:52.617Z,0
2022-12-18T00:53:08.911Z,0
2022-12-18T00:54:25.196Z,0
2022-12-18T00:55:40.518Z,0
2022-12-18T00:56:56.819Z,0
2022-12-18T00:58:13.098Z,0
2022-12-18T00:59:29.398Z,0
2022-12-18T01:00:45.685Z,0
2022-12-18T01:02:01.986Z,0
2022-12-18T01:03:18.277Z,0
2022-12-18T01:04:34.573Z,0
2022-12-18T01:05:50.878Z,0
2022-12-18T01:07:07.170Z,0
2022-12-18T01:08:23.469Z,0
2022-12-18T01:09:39.754Z,0
2022-12-18T01:10:56.050Z,0
2022-12-18T01:12:12.347Z,0
2022-12-18T01:13:27.653Z,0
2022-12-18T01:14:43.951Z,0
2022-12-18T01:16:00.257Z,0
2022-12-18T01:17:16.538Z,0
2022-12-18T01:18:32.834Z,0
2022-12-18T01:19:49.128Z,0
2022-12-18T01:21:05.433Z,0
2022-12-18T01:22:21.731Z,0
2022-12-18T01:23:38.018Z,0
2022-12-18T01:24:54.304Z,0
2022-12-18T01:26:10.611Z,0
2022-12-18T01:27:26.897Z,0
2022-12-18T01:28:43.198Z,0
2022-12-18T01:29:58.515Z,0
2022-12-18T01:31:14.811Z,0
2022-12-18T01:32:31.095Z,0
2022-12-18T01:33:47.399Z,0
2022-12-18T01:35:03.693Z,0
2022-12-18T01:36:19.978Z,0
2022-12-18T01:37:36.283Z,0
2022-12-18T01:38:52.569Z,0
2022-12-18T01:40:08.872Z,0
2022-12-18T01:41:25.164Z,0
2022-12-18T01:42:41.463Z,0
2022-12-18T01:43:57.748Z,0
2022-12-18T01:45:14.036Z,0
2022-12-18T01:46:29.363Z,0
2022-12-18T01:47:45.640Z,0
2022-12-18T01:49:01.953Z,0
2022-12-18T01:50:18.233Z,0
2022-12-18T01:51:34.540Z,0
2022-12-18T01:52:50.827Z,0
2022-12-18T01:54:07.114Z,0
2022-12-18T01:55:23.419Z,0
2022-12-18T01:56:39.723Z,0
2022-12-18T01:57:56.008Z,0
2022-12-18T01:59:12.294Z,0
2022-12-18T02:00:28.600Z,0
2022-12-18T02:01:44.896Z,0
2022-12-18T02:03:00.201Z,0
2022-12-18T02:04:16.495Z,0
2022-12-18T02:05:32.792Z,0
2022-12-18T02:06:49.090Z,0
2022-12-18T02:08:05.382Z,0
2022-12-18T02:09:21.683Z,0
2022-12-18T02:10:37.964Z,0
2022-12-18T02:11:54.276Z,0
2022-12-18T02:13:10.555Z,0
2022-12-18T02:14:26.864Z,0
2022-12-18T02:15:43.153Z,0
2022-12-18T02:16:59.454Z,0
2022-12-18T02:18:15.748Z,0
2022-12-18T02:19:31.044Z,0
2022-12-18T02:20:47.339Z,0
2022-12-18T02:22:03.649Z,0
2022-12-18T02:23:19.927Z,0
2022-12-18T02:24:36.223Z,0
2022-12-18T02:25:52.527Z,0
2022-12-18T02:27:08.826Z,0
2022-12-18T02:28:25.125Z,0
2022-12-18T02:29:41.418Z,0
2022-12-18T02:30:57.697Z,0
2022-12-18T02:32:13.998Z,0
2022-12-18T02:33:30.301Z,0
2022-12-18T02:34:46.597Z,0
2022-12-18T02:36:01.895Z,0
2022-12-18T02:37:18.202Z,0
2022-12-18T02:38:34.485Z,0
2022-12-18T02:39:50.792Z,0
2022-12-18T02:41:07.080Z,0
2022-12-18T02:42:23.371Z,0
2022-12-18T02:43:39.677Z,0
2022-12-18T02:44:55.964Z,0
2022-12-18T02:46:12.250Z,0
2022-12-18T02:47:28.559Z,0
2022-12-18T02:48:44.858Z,0
2022-12-18T02:50:01.146Z,0
2022-12-18T02:51:17.444Z,0
2022-12-18T02:52:32.756Z,0
2022-12-18T02:53:49.039Z,0
2022-12-18T02:55:05.338Z,0
2022-12-18T02:56:21.629Z,0
2022-12-18T02:57:37.931Z,0
2022-12-18T02:58:54.231Z,0
2022-12-18T03:00:10.529Z,0
2022-12-18T03:01:26.809Z,0
2022-12-18T03:02:43.099Z,0
2022-12-18T03:03:59.394Z,0
2022-12-18T03:05:15.702Z,0
2022-12-18T03:06:31.995Z,0
2022-12-18T03:07:48.294Z,0
2022-12-18T03:09:03.607Z,0
2022-12-18T03:10:19.902Z,0
2022-12-18T03:11:36.183Z,0
2022-12-18T03:12:52.479Z,0
2022-12-18T03:14:08.787Z,0
2022-12-18T03:15:24.101Z,0
2022-12-18T03:16:40.397Z,0
2022-12-18T03:17:56.690Z,0
2022-12-18T03:19:12.983Z,0
2022-12-18T03:20:29.281Z,0
2022-12-18T03:21:45.577Z,0
2022-12-18T03:23:01.866Z,0
2022-12-18T03:24:18.151Z,0
2022-12-18T03:25:34.450Z,0
2022-12-18T03:26:50.739Z,0
2022-12-18T03:28:07.051Z,0
2022-12-18T03:29:23.332Z,0
2022-12-18T03:30:39.630Z,0
2022-12-18T03:31:54.948Z,0
2022-12-18T03:33:11.238Z,0
2022-12-18T03:34:27.533Z,0
2022-12-18T03:35:43.824Z,0
2022-12-18T03:37:00.134Z,0
2022-12-18T03:38:16.408Z,0
2022-12-18T03:39:32.714Z,0
2022-12-18T03:40:49.012Z,0
2022-12-18T03:42:05.306Z,0
2022-12-18T03:43:21.589Z,0
2022-12-18T03:44:37.895Z,0
2022-12-18T03:45:54.188Z,0
2022-12-18T03:47:10.476Z,0
2022-12-18T03:48:25.785Z,0
2022-12-18T03:49:42.091Z,0
2022-12-18T03:50:58.374Z,0
2022-12-18T03:52:14.665Z,0
2022-12-18T03:53:30.968Z,0
2022-12-18T03:54:47.272Z,0
2022-12-18T03:56:03.566Z,0
2022-12-18T03:57:19.854Z,0
2022-12-18T03:58:36.154Z,0
2022-12-18T03:59:52.437Z,0
2022-12-18T04:01:08.747Z,0
2022-12-18T04:02:25.028Z,0
2022-12-18T04:03:41.321Z,0
2022-12-18T04:04:56.636Z,0
2022-12-18T04:06:12.935Z,0
2022-12-18T04:07:29.221Z,0
2022-12-18T04:08:45.520Z,0
2022-12-18T04:10:01.817Z,0
2022-12-18T04:11:18.120Z,0
2022-12-18T04:12:34.410Z,0
2022-12-18T04:13:50.707Z,0
2022-12-18T04:15:07.006Z,0
2022-12-18T04:16:23.300Z,0
2022-12-18T04:17:39.593Z,0
2022-12-18T04:18:55.000Z,0
2022-12-18T04:20:12.168Z,0
2022-12-18T04:21:27.477Z,0
2022-12-18T04:22:43.789Z,0
2022-12-18T04:24:00.087Z,0
2022-12-18T04:25:16.378Z,0
2022-12-18T04:26:32.672Z,0
2022-12-18T04:27:48.970Z,0
2022-12-18T04:29:05.259Z,0
2022-12-18T04:30:21.547Z,0
2022-12-18T04:31:37.835Z,0
2022-12-18T04:32:54.134Z,0
2022-12-18T04:34:10.427Z,0
2022-12-18T04:35:26.721Z,0
2022-12-18T04:36:43.026Z,0
2022-12-18T04:37:58.334Z,0
2022-12-18T04:39:14.637Z,0
2022-12-18T04:40:30.921Z,0
2022-12-18T04:41:47.226Z,0
2022-12-18T04:43:03.515Z,0
2022-12-18T04:44:19.811Z,0
2022-12-18T04:45:36.096Z,0
2022-12-18T04:46:52.399Z,0
2022-12-18T04:48:08.694Z,0
2022-12-18T04:49:24.991Z,0
2022-12-18T04:50:41.292Z,0
2022-12-18T04:51:57.589Z,0
2022-12-18T04:53:13.869Z,0
2022-12-18T04:54:29.189Z,0
2022-12-18T04:55:45.485Z,0
2022-12-18T04:57:01.778Z,0
2022-12-18T04:58:18.064Z,0
2022-12-18T04:59:34.374Z,0
2022-12-18T05:00:50.669Z,0
2022-12-18T05:02:06.954Z,0
2022-12-18T05:03:23.258Z,0
2022-12-18T05:04:39.550Z,0
2022-12-18T05:05:55.832Z,0
2022-12-18T05:07:12.138Z,0
2022-12-18T05:08:28.431Z,0
2022-12-18T05:09:44.728Z,0
2022-12-18T05:11:00.029Z,0
2022-12-18T05:12:16.338Z,0
2022-12-18T05:13:32.622Z,0
2022-12-18T05:14:48.924Z,0
2022-12-18T05:16:05.219Z,0
2022-12-18T05:17:21.517Z,0
2022-12-18T05:18:37.796Z,0
2022-12-18T05:19:54.097Z,0
2022-12-18T05:21:10.399Z,0
2022-12-18T05:22:26.692Z,0
2022-12-18T05:23:42.989Z,0
2022-12-18T05:24:59.276Z,0
2022-12-18T05:26:15.574Z,0
2022-12-18T05:27:30.893Z,0
2022-12-18T05:28:47.173Z,0
2022-12-18T05:30:03.473Z,0
2022-12-18T05:31:19.766Z,0
2022-12-18T05:32:36.074Z,0
2022-12-18T05:33:52.362Z,0
2022-12-18T05:35:08.663Z,0
2022-12-18T05:36:24.952Z,0
2022-12-18T05:37:41.246Z,0
2022-12-18T05:38:57.530Z,0
2022-12-18T05:40:13.823Z,0
2022-12-18T05:41:30.128Z,0
2022-12-18T05:42:46.431Z,0
2022-12-18T05:44:01.741Z,0
2022-12-18T05:45:18.030Z,0
2022-12-18T05:46:34.316Z,0
2022-12-18T05:47:50.614Z,0
2022-12-18T05:49:06.912Z,0
2022-12-18T05:50:23.213Z,0
2022-12-18T05:51:39.506Z,0
2022-12-18T05:52:55.791Z,0
2022-12-18T05:54:12.096Z,0
2022-12-18T05:55:28.390Z,0
2022-12-18T05:56:44.685Z,0
2022-12-18T05:58:00.971Z,0
2022-12-18T05:59:17.278Z,0
2022-12-18T06:00:32.590Z,0
2022-12-18T06:01:48.870Z,0
2022-12-18T06:03:05.184Z,0
2022-12-18T06:04:21.459Z,0
2022-12-18T06:05:37.757Z,0
2022-12-18T06:06:54.068Z,0
2022-12-18T06:08:10.353Z,0
2022-12-18T06:09:26.640Z,0
2022-12-18T06:10:42.943Z,0
2022-12-18T06:11:59.231Z,0
2022-12-18T06:13:15.532Z,0
2022-12-18T06:14:31.823Z,0
2022-12-18T06:15:48.123Z,0
2022-12-18T06:17:03.431Z,0
2022-12-18T06:18:19.741Z,0
2022-12-18T06:19:36.023Z,0
2022-12-18T06:20:52.329Z,0
2022-12-18T06:22:08.612Z,0
2022-12-18T06:23:24.920Z,0
2022-12-18T06:24:41.211Z,0
2022-12-18T06:25:57.454Z,1
2022-12-18T06:27:13.738Z,0
2022-12-18T06:28:30.039Z,0
2022-12-18T06:29:46.301Z,1
2022-12-18T06:31:02.540Z,1
2022-12-18T06:32:18.776Z,1
2022-12-18T06:33:34.086Z,0
2022-12-18T06:34:50.342Z,2
2022-12-18T06:36:06.584Z,1
2022-12-18T06:37:22.836Z,1
2022-12-18T06:38:39.078Z,2
2022-12-18T06:39:55.328Z,1
2022-12-18T06:41:11.560Z,1
2022-12-18T06:42:27.809Z,2
2022-12-18T06:43:44.044Z,5
2022-12-18T06:45:00.287Z,2
2022-12-18T06:46:16.536Z,1
2022-12-18T06:47:32.760Z,2
2022-12-18T06:48:49.007Z,6
2022-12-18T06:50:04.275Z,4
2022-12-18T06:51:20.510Z,4
2022-12-18T06:52:36.758Z,6
2022-12-18T06:53:52.979Z,10
2022-12-18T06:55:09.221Z,13
2022-12-18T06:56:25.473Z,12
2022-12-18T06:57:41.719Z,17
2022-12-18T06:58:57.945Z,20
2022-12-18T07:00:14.193Z,25
2022-12-18T07:01:30.434Z,31
2022-12-18T07:02:46.674Z,34
2022-12-18T07:04:02.917Z,38
2022-12-18T07:05:19.161Z,43
2022-12-18T07:06:34.406Z,48
2022-12-18T07:07:50.653Z,57
2022-12-18T07:09:06.905Z,65
2022-12-18T07:10:23.139Z,74
2022-12-18T07:11:39.368Z,80
2022-12-18T07:12:55.626Z,92
2022-12-18T07:14:11.870Z,99
2022-12-18T07:15:28.108Z,108
2022-12-18T07:16:44.340Z,123
2022-12-18T07:18:00.573Z,135
2022-12-18T07:19:16.819Z,145
2022-12-18T07:20:33.056Z,158
2022-12-18T07:21:49.303Z,173
2022-12-18T07:23:04.562Z,186
2022-12-18T07:24:20.805Z,196
2022-12-18T07:25:37.039Z,213
2022-12-18T07:26:53.288Z,223
2022-12-18T07:28:09.531Z,240
2022-12-18T07:29:25.761Z,253
2022-12-18T07:30:41.031Z,270
2022-12-18T07:31:57.266Z,284
2022-12-18T07:33:13.508Z,294
2022-12-18T07:34:29.746Z,313
2022-12-18T07:35:45.987Z,325
2022-12-18T07:37:02.242Z,343
2022-12-18T07:38:18.477Z,361
2022-12-18T07:39:34.723Z,378
2022-12-18T07:40:50.963Z,397
2022-12-18T07:42:07.204Z,410
2022-12-18T07:43:23.431Z,426
2022-12-18T07:44:39.690Z,440
2022-12-18T07:45:55.923Z,449
2022-12-18T07:47:11.187Z,463
2022-12-18T07:48:27.415Z,476
2022-12-18T07:49:43.650Z,493
2022-12-18T07:50:59.894Z,505
2022-12-18T07:52:16.140Z,521
2022-12-18T07:53:32.375Z,534
2022-12-18T07:54:48.627Z,551
2022-12-18T07:56:04.862Z,569
2022-12-18T07:57:21.097Z,587
2022-12-18T07:58:37.354Z,599
2022-12-18T07:59:53.590Z,605
2022-12-18T08:01:09.836Z,617
2022-12-18T08:02:26.069Z,635
2022-12-18T08:03:41.330Z,651
2022-12-18T08:04:57.566Z,628
2022-12-18T08:06:13.818Z,590
2022-12-18T08:07:30.059Z,623
2022-12-18T08:08:46.280Z,605
2022-12-18T08:10:02.527Z,646
2022-12-18T08:11:18.781Z,694
2022-12-18T08:12:35.008Z,696
2022-12-18T08:13:51.257Z,748
2022-12-18T08:15:07.501Z,865
2022-12-18T08:16:23.726Z,721
2022-12-18T08:17:39.972Z,768
2022-12-18T08:18:56.209Z,792
2022-12-18T08:20:11.475Z,796
2022-12-18T08:21:27.717Z,799
2022-12-18T08:22:43.954Z,850
2022-12-18T08:24:00.207Z,848
2022-12-18T08:25:16.434Z,871
2022-12-18T08:26:32.680Z,882
2022-12-18T08:27:48.909Z,887
2022-12-18T08:29:05.154Z,897
2022-12-18T08:30:21.399Z,917
2022-12-18T08:31:37.641Z,916
2022-12-18T08:32:53.881Z,936
2022-12-18T08:34:10.123Z,947
2022-12-18T08:35:26.356Z,970
2022-12-18T08:36:41.629Z,989
2022-12-18T08:37:57.853Z,1005
2022-12-18T08:39:14.092Z,1018
2022-12-18T08:40:30.348Z,985
2022-12-18T08:41:46.593Z,981
2022-12-18T08:43:02.835Z,1165
2022-12-18T08:44:19.074Z,1355
2022-12-18T08:45:35.315Z,1506
2022-12-18T08:46:51.548Z,1583
2022-12-18T08:48:07.776Z,1625
2022-12-18T08:49:24.030Z,1634
2022-12-18T08:50:40.275Z,1647
2022-12-18T08:51:56.516Z,1649
2022-12-18T08:53:11.756Z,1681
2022-12-18T08:54:28.011Z,1651
2022-12-18T08:55:44.238Z,1678
2022-12-18T08:57:00.481Z,1701
2022-12-18T08:58:16.734Z,1727
2022-12-18T08:59:32.976Z,1748
2022-12-18T09:00:49.200Z,1747
2022-12-18T09:02:05.447Z,1769
2022-12-18T09:03:21.687Z,1811
2022-12-18T09:04:37.931Z,1843
2022-12-18T09:05:54.175Z,1883
2022-12-18T09:07:10.403Z,1919
2022-12-18T09:08:26.649Z,1950
2022-12-18T09:09:41.895Z,1970
2022-12-18T09:10:58.138Z,2021
2022-12-18T09:12:14.376Z,2042
2022-12-18T09:13:30.615Z,2081
2022-12-18T09:14:46.859Z,2114
2022-12-18T09:16:03.100Z,2179
2022-12-18T09:17:19.341Z,2162
2022-12-18T09:18:35.571Z,2244
2022-12-18T09:19:51.819Z,2282
2022-12-18T09:21:08.061Z,2292
2022-12-18T09:22:24.289Z,2334
2022-12-18T09:23:40.532Z,2380
2022-12-18T09:24:56.785Z,2376
2022-12-18T09:26:12.026Z,2414
2022-12-18T09:27:28.266Z,2459
2022-12-18T09:28:44.511Z,2445
2022-12-18T09:30:00.762Z,2557
2022-12-18T09:31:16.986Z,2610
2022-12-18T09:32:33.224Z,2675
2022-12-18T09:33:49.469Z,2804
2022-12-18T09:35:05.713Z,3019
2022-12-18T09:36:21.961Z,3190
2022-12-18T09:37:38.187Z,3765
2022-12-18T09:38:54.434Z,4205
2022-12-18T09:40:10.660Z,4394
2022-12-18T09:41:26.898Z,3268
2022-12-18T09:42:42.154Z,1522
2022-12-18T09:43:58.410Z,1505
2022-12-18T09:45:14.651Z,1500
2022-12-18T09:46:30.872Z,1499
2022-12-18T09:47:47.116Z,1504
2022-12-18T09:49:03.357Z,1509
2022-12-18T09:50:19.609Z,1520
2022-12-18T09:51:35.838Z,1536
2022-12-18T09:52:52.084Z,1543
2022-12-18T09:54:08.320Z,1549
2022-12-18T09:55:24.557Z,1555
2022-12-18T09:56:40.800Z,1562
2022-12-18T09:57:57.024Z,1571
2022-12-18T09:59:12.280Z,1580
2022-12-18T10:00:28.531Z,1593
2022-12-18T10:01:44.765Z,1609
2022-12-18T10:04:17.241Z,1652
2022-12-18T10:05:33.484Z,1675
2022-12-18T10:06:49.729Z,1695
2022-12-18T10:08:05.966Z,1704
2022-12-18T10:09:22.215Z,1706
2022-12-18T10:10:38.436Z,1710
2022-12-18T10:11:54.683Z,1720
2022-12-18T10:13:10.935Z,1722
2022-12-18T10:14:27.160Z,1726
2022-12-18T10:15:42.426Z,1732
2022-12-18T10:16:58.670Z,1734
2022-12-18T10:18:14.910Z,1739
2022-12-18T10:19:31.146Z,1746
2022-12-18T10:20:47.375Z,1753
2022-12-18T10:22:03.612Z,1753
2022-12-18T10:23:19.869Z,1764
2022-12-18T10:24:36.096Z,1789
2022-12-18T10:25:52.331Z,1795
2022-12-18T10:27:08.574Z,1798
2022-12-18T10:28:24.824Z,1817
2022-12-18T10:29:41.048Z,1825
2022-12-18T10:30:57.301Z,1816
2022-12-18T10:32:12.553Z,1830
2022-12-18T10:33:28.803Z,1838
2022-12-18T10:34:45.034Z,1847
2022-12-18T10:36:01.281Z,1852
2022-12-18T10:37:17.520Z,1849
2022-12-18T10:38:33.745Z,1850
2022-12-18T10:39:49.981Z,1869
2022-12-18T10:41:06.229Z,1878
2022-12-18T10:42:22.466Z,1877
2022-12-18T10:43:38.710Z,1884
2022-12-18T10:44:54.950Z,1887
2022-12-18T10:46:11.181Z,1896
2022-12-18T10:47:27.439Z,1912
2022-12-18T10:48:42.681Z,1916
2022-12-18T10:49:58.919Z,1924
2022-12-18T10:51:15.159Z,1938
2022-12-18T10:52:31.397Z,1954
2022-12-18T10:53:47.653Z,1976
2022-12-18T10:55:03.890Z,2003
2022-12-18T10:56:20.117Z,2033
2022-12-18T10:57:36.375Z,2061
2022-12-18T10:58:52.598Z,2084
2022-12-18T11:00:08.846Z,2105
2022-12-18T11:01:25.077Z,2119
2022-12-18T11:02:41.324Z,2121
2022-12-18T11:03:57.570Z,2126
2022-12-18T11:05:12.826Z,2129
2022-12-18T11:06:29.071Z,2139
2022-12-18T11:07:45.297Z,2233
2022-12-18T11:09:01.533Z,2248
2022-12-18T11:10:17.777Z,2275
2022-12-18T11:11:34.029Z,2284
2022-12-18T11:12:50.271Z,2306
2022-12-18T11:14:06.492Z,2348
2022-12-18T11:15:22.734Z,2392
2022-12-18T11:16:38.981Z,2499
2022-12-18T11:17:55.219Z,2510
2022-12-18T11:19:11.461Z,2561
2022-12-18T11:20:27.704Z,2688
2022-12-18T11:21:42.960Z,2700
2022-12-18T11:22:59.205Z,2559
2022-12-18T11:24:15.439Z,2627
2022-12-18T11:25:31.670Z,2603
2022-12-18T11:26:47.919Z,2551
2022-12-18T11:28:04.149Z,2500
2022-12-18T11:29:20.404Z,2594
2022-12-18T11:30:36.647Z,2566
2022-12-18T11:31:52.881Z,2362
2022-12-18T11:33:09.119Z,2430
2022-12-18T11:34:25.351Z,2335
2022-12-18T11:35:41.594Z,2497
2022-12-18T11:36:57.836Z,2476
2022-12-18T11:38:13.098Z,2445
2022-12-18T11:39:29.346Z,2571
2022-12-18T11:40:45.576Z,2491
2022-12-18T11:42:01.811Z,2460
2022-12-18T11:43:18.066Z,2409
2022-12-18T11:44:34.296Z,2439
2022-12-18T11:45:49.555Z,2493
2022-12-18T11:47:05.795Z,2567
2022-12-18T11:48:22.030Z,2615
2022-12-18T11:49:38.278Z,2744
2022-12-18T11:50:54.521Z,2763
2022-12-18T11:52:10.757Z,2749
2022-12-18T11:53:27.004Z,2726
2022-12-18T11:54:43.234Z,2824
2022-12-18T11:55:59.471Z,2929
2022-12-18T11:57:15.722Z,2457
2022-12-18T11:58:31.958Z,2817
2022-12-18T11:59:48.199Z,2920
2022-12-18T12:01:04.433Z,3076
2022-12-18T12:02:19.699Z,3130
2022-12-18T12:03:35.927Z,3336
2022-12-18T12:04:52.184Z,3410
2022-12-18T12:06:08.404Z,3247
2022-12-18T12:07:24.650Z,3316
2022-12-18T12:08:40.888Z,3412
2022-12-18T12:11:13.368Z,3146
2022-12-18T12:12:29.604Z,1789
2022-12-18T12:13:45.846Z,2735
2022-12-18T12:15:02.069Z,6330
2022-12-18T12:16:18.316Z,9724
2022-12-18T12:17:34.555Z,83677
2022-12-18T12:18:49.822Z,79418
2022-12-18T12:20:06.044Z,72066
2022-12-18T12:21:22.287Z,12032
2022-12-18T12:22:38.526Z,20604
2022-12-18T12:23:54.772Z,23577
2022-12-18T12:25:11.021Z,10371
2022-12-18T12:26:27.248Z,81485
2022-12-18T12:27:43.481Z,76916
2022-12-18T12:28:59.737Z,35589
2022-12-18T12:30:15.973Z,14156
2022-12-18T12:31:32.204Z,17046
2022-12-18T12:32:48.440Z,14951
2022-12-18T12:34:04.690Z,9025
2022-12-18T12:35:19.933Z,3570
2022-12-18T12:36:36.176Z,2200
2022-12-18T12:37:52.412Z,6188
2022-12-18T12:39:08.664Z,3447
2022-12-18T12:40:24.891Z,4114
2022-12-18T12:41:41.139Z,10395
2022-12-18T12:42:57.374Z,12601
2022-12-18T12:44:13.612Z,15027
2022-12-18T12:45:29.857Z,7356
2022-12-18T12:46:46.094Z,6184
2022-12-18T12:48:02.347Z,12108
2022-12-18T12:49:18.575Z,6702
2022-12-18T12:50:34.823Z,3714
2022-12-18T12:51:50.071Z,3243
2022-12-18T12:53:06.313Z,3013
2022-12-18T12:54:22.554Z,2909
2022-12-18T12:55:38.779Z,2840
2022-12-18T12:56:55.034Z,3044
2022-12-18T12:58:11.269Z,3083
2022-12-18T12:59:27.498Z,3011
2022-12-18T13:01:59.994Z,3042
2022-12-18T13:03:16.220Z,3219
2022-12-18T13:04:32.462Z,3073
2022-12-18T13:05:48.702Z,2964
2022-12-18T13:07:04.953Z,3298
2022-12-18T13:08:20.194Z,3139
2022-12-18T13:09:36.446Z,3081
2022-12-18T13:10:52.670Z,3087
2022-12-18T13:12:08.927Z,3077
2022-12-18T13:13:25.153Z,3037
2022-12-18T13:14:41.405Z,2999
2022-12-18T13:15:57.628Z,2977
2022-12-18T13:17:13.878Z,2938
2022-12-18T13:18:30.115Z,2941
2022-12-18T13:19:46.353Z,2892
2022-12-18T13:21:02.591Z,2829
2022-12-18T13:22:18.832Z,2817
2022-12-18T13:23:35.063Z,2749
2022-12-18T13:24:50.326Z,2680
2022-12-18T13:26:06.578Z,2649
2022-12-18T13:27:22.802Z,2577
2022-12-18T13:28:39.038Z,2550
2022-12-18T13:29:55.291Z,2421
2022-12-18T13:31:11.527Z,2226
2022-12-18T13:32:27.776Z,2192
2022-12-18T13:33:44.014Z,2088
2022-12-18T13:35:00.239Z,2056
2022-12-18T13:36:16.483Z,1974
2022-12-18T13:37:32.720Z,1846
2022-12-18T13:38:48.973Z,1774
2022-12-18T13:40:05.212Z,1759
2022-12-18T13:41:20.468Z,1736
2022-12-18T13:42:36.708Z,1709
2022-12-18T13:43:52.940Z,1631
2022-12-18T13:45:09.189Z,1543
2022-12-18T13:46:25.427Z,1470
2022-12-18T13:47:41.652Z,1430
2022-12-18T13:48:57.895Z,1401
2022-12-18T13:50:14.130Z,1367
2022-12-18T13:51:30.392Z,1313
2022-12-18T13:52:46.622Z,1247
2022-12-18T13:54:02.871Z,1189
2022-12-18T13:55:19.106Z,1131
2022-12-18T13:56:35.349Z,1096
2022-12-18T13:57:50.593Z,1056
2022-12-18T13:59:06.836Z,1017
2022-12-18T14:00:23.067Z,978
2022-12-18T14:01:39.314Z,965
2022-12-18T14:02:55.544Z,974
2022-12-18T14:04:11.795Z,984
2022-12-18T14:05:28.030Z,997
2022-12-18T14:06:44.274Z,984
2022-12-18T14:08:00.513Z,960
2022-12-18T14:09:16.743Z,957
2022-12-18T14:10:32.999Z,929
2022-12-18T14:11:49.223Z,894
2022-12-18T14:13:05.469Z,851
2022-12-18T14:14:20.736Z,817
2022-12-18T14:15:36.974Z,775
2022-12-18T14:16:53.200Z,753
2022-12-18T14:18:09.439Z,733
2022-12-18T14:19:25.696Z,711
2022-12-18T14:20:41.923Z,707
2022-12-18T14:21:58.159Z,707
2022-12-18T14:23:14.407Z,717
2022-12-18T14:24:30.655Z,722
2022-12-18T14:25:46.884Z,719
2022-12-18T14:27:03.118Z,708
2022-12-18T14:28:19.363Z,691
2022-12-18T14:29:35.613Z,674
2022-12-18T14:30:50.854Z,654
2022-12-18T14:32:07.094Z,625
2022-12-18T14:33:23.342Z,590
2022-12-18T14:34:39.589Z,553
2022-12-18T14:35:55.820Z,516
2022-12-18T14:37:12.059Z,482
2022-12-18T14:38:28.302Z,442
2022-12-18T14:39:44.531Z,411
2022-12-18T14:41:00.777Z,390
2022-12-18T14:42:17.031Z,360
2022-12-18T14:43:33.258Z,338
2022-12-18T14:44:49.501Z,315
2022-12-18T14:46:05.733Z,296
2022-12-18T14:47:20.998Z,282
2022-12-18T14:48:37.235Z,265
2022-12-18T14:49:53.483Z,247
2022-12-18T14:51:09.714Z,227
2022-12-18T14:52:25.965Z,212
2022-12-18T14:53:42.189Z,192
2022-12-18T14:54:58.430Z,176
2022-12-18T14:56:14.679Z,157
2022-12-18T14:57:30.917Z,136
2022-12-18T14:58:47.158Z,118
2022-12-18T15:00:03.404Z,107
2022-12-18T15:01:19.634Z,96
2022-12-18T15:02:35.865Z,89
2022-12-18T15:03:51.129Z,80
2022-12-18T15:05:07.363Z,75
2022-12-18T15:06:23.608Z,67
2022-12-18T15:07:39.840Z,60
2022-12-18T15:08:56.082Z,53
2022-12-18T15:10:12.331Z,46
2022-12-18T15:11:28.573Z,40
2022-12-18T15:12:44.801Z,36
2022-12-18T15:14:01.044Z,29
2022-12-18T15:15:17.295Z,25
2022-12-18T15:16:33.526Z,22
2022-12-18T15:17:49.773Z,17
2022-12-18T15:19:06.005Z,16
2022-12-18T15:20:21.270Z,12
2022-12-18T15:21:37.508Z,11
2022-12-18T15:22:53.755Z,8
2022-12-18T15:24:09.993Z,8
2022-12-18T15:25:26.234Z,5
2022-12-18T15:26:42.457Z,3
2022-12-18T15:27:58.702Z,3
2022-12-18T15:29:14.940Z,2
2022-12-18T15:30:31.190Z,2
2022-12-18T15:31:47.419Z,2
2022-12-18T15:33:03.668Z,1
2022-12-18T15:34:19.905Z,1
2022-12-18T15:35:36.204Z,0
2022-12-18T15:36:51.514Z,0
2022-12-18T15:38:07.809Z,0
2022-12-18T15:39:24.089Z,0
2022-12-18T15:40:40.389Z,0
2022-12-18T15:41:56.681Z,0
2022-12-18T15:43:12.988Z,0
2022-12-18T15:44:29.277Z,0
2022-12-18T15:45:45.578Z,0
2022-12-18T15:47:01.873Z,0
2022-12-18T15:48:18.165Z,0
2022-12-18T15:49:34.444Z,0
2022-12-18T15:50:50.746Z,0
2022-12-18T15:52:07.032Z,0
2022-12-18T15:53:22.342Z,0
2022-12-18T15:54:38.649Z,0
2022-12-18T15:55:54.943Z,0
2022-12-18T15:57:11.236Z,0
2022-12-18T15:58:27.526Z,0
2022-12-18T15:59:43.814Z,0
2022-12-18T16:00:59.145Z,0
2022-12-18T16:02:15.429Z,0
2022-12-18T16:03:31.734Z,0
2022-12-18T16:04:48.022Z,0
2022-12-18T16:06:04.317Z,0
2022-12-18T16:07:20.616Z,0
2022-12-18T16:08:36.898Z,0
2022-12-18T16:09:53.196Z,0
2022-12-18T16:11:09.496Z,0
2022-12-18T16:12:25.794Z,0
2022-12-18T16:13:42.072Z,0
2022-12-18T16:14:58.370Z,0
2022-12-18T16:16:14.663Z,0
2022-12-18T16:17:29.973Z,0
2022-12-18T16:18:46.270Z,0
2022-12-18T16:20:02.561Z,0
2022-12-18T16:28:56.631Z,0
2022-12-18T16:30:11.928Z,0
2022-12-18T16:31:27.252Z,0
2022-12-18T16:32:43.535Z,0
2022-12-18T16:33:59.827Z,0
2022-12-18T16:35:16.123Z,0
2022-12-18T16:36:32.418Z,0
2022-12-18T16:37:48.725Z,0
2022-12-18T16:39:05.017Z,0
2022-12-18T16:40:21.299Z,0
2022-12-18T16:41:37.608Z,0
2022-12-18T16:42:53.885Z,0
2022-12-18T16:44:10.195Z,0
2022-12-18T16:45:25.497Z,0
2022-12-18T16:46:40.806Z,0
2022-12-18T16:47:56.133Z,0
2022-12-18T16:49:11.432Z,0
2022-12-18T16:51:44.002Z,0
2022-12-18T16:53:00.314Z,0
2022-12-18T16:54:16.599Z,0
2022-12-18T16:55:32.894Z,0
2022-12-18T16:56:49.190Z,0
2022-12-18T16:58:05.474Z,0
2022-12-18T16:59:21.766Z,0
2022-12-18T17:00:38.075Z,0
2022-12-18T17:01:54.368Z,0
2022-12-18T17:03:10.661Z,0
2022-12-18T17:04:26.961Z,0
2022-12-18T17:05:42.264Z,0
2022-12-18T17:06:58.565Z,0
2022-12-18T17:08:14.846Z,0
2022-12-18T17:09:31.154Z,0
2022-12-18T17:10:47.443Z,0
2022-12-18T17:12:03.740Z,0
2022-12-18T17:13:20.026Z,0
2022-12-18T17:14:36.321Z,0
2022-12-18T17:15:51.640Z,0
2022-12-18T17:17:06.938Z,0
2022-12-18T17:18:23.240Z,0
2022-12-18T17:19:39.544Z,0
2022-12-18T17:20:55.829Z,0
2022-12-18T17:22:12.112Z,0
2022-12-18T17:23:28.427Z,0
2022-12-18T17:24:44.716Z,0
2022-12-18T17:26:01.006Z,0
2022-12-18T17:27:17.288Z,0
2022-12-18T17:28:33.603Z,0
2022-12-18T17:31:06.206Z,0
2022-12-18T17:32:22.498Z,0
2022-12-18T17:41:15.570Z,0
2022-12-18T17:42:30.883Z,0
2022-12-18T17:43:46.200Z,0
2022-12-18T17:45:02.477Z,0
2022-12-18T17:46:18.774Z,0
2022-12-18T17:47:35.066Z,0
2022-12-18T17:48:51.364Z,0
2022-12-18T17:50:07.651Z,0
2022-12-18T17:51:23.948Z,0
2022-12-18T17:52:40.246Z,0
2022-12-18T17:53:56.546Z,0
2022-12-18T17:55:12.841Z,0
2022-12-18T17:56:28.160Z,0
2022-12-18T17:57:43.466Z,0
2022-12-18T17:58:58.780Z,0
2022-12-18T18:00:14.095Z,0
2022-12-18T18:01:29.414Z,0
2022-12-18T18:02:44.723Z,0
2022-12-18T18:09:05.188Z,0
2022-12-18T18:10:20.498Z,0
2022-12-18T18:11:36.778Z,0
2022-12-18T18:12:53.089Z,0
2022-12-18T18:14:09.380Z,0
2022-12-18T18:15:25.670Z,0
2022-12-18T18:16:41.960Z,0
2022-12-18T18:19:14.558Z,0
2022-12-18T18:20:30.845Z,0
2022-12-18T18:21:46.166Z,0
2022-12-18T18:24:17.762Z,0
2022-12-18T18:25:33.077Z,0
2022-12-18T18:26:48.382Z,0
2022-12-18T18:28:04.674Z,0